createdAt,value
2018-04-23T00:01:13.174Z,70.57
2018-04-23T00:06:14.493Z,70.45
2018-04-23T00:11:15.810Z,70.30
2018-04-23T00:16:17.113Z,70.37
2018-04-23T00:21:18.426Z,70.31
2018-04-23T00:26:19.755Z,70.43
2018-04-23T00:31:21.795Z,70.45
2018-04-23T00:36:23.099Z,70.64
2018-04-23T00:41:24.403Z,70.45
2018-04-23T00:46:25.705Z,70.21
2018-04-23T00:51:27.018Z,70.25
2018-04-23T00:56:29.055Z,70.43
2018-04-23T01:01:30.370Z,70.40
2018-04-23T01:06:31.673Z,70.23
2018-04-23T01:11:32.974Z,70.22
2018-04-23T01:16:34.298Z,70.23
2018-04-23T01:21:35.597Z,70.39
2018-04-23T01:26:36.950Z,70.47
2018-04-23T01:31:38.247Z,70.46
2018-04-23T01:36:40.285Z,70.13
2018-04-23T01:41:41.610Z,70.06
2018-04-23T01:46:42.930Z,70.16
2018-04-23T01:51:44.988Z,70.00
2018-04-23T01:56:46.308Z,70.01
2018-04-23T02:01:48.376Z,70.09
2018-04-23T02:06:49.680Z,69.99
2018-04-23T02:11:50.982Z,69.91
2018-04-23T02:16:52.298Z,69.69
2018-04-23T02:21:54.343Z,69.47
2018-04-23T02:26:55.641Z,69.24
2018-04-23T02:31:57.039Z,69.20
2018-04-23T02:36:58.370Z,69.15
2018-04-23T02:42:00.422Z,68.97
2018-04-23T02:47:01.737Z,68.73
2018-04-23T02:52:03.054Z,68.69
2018-04-23T02:57:05.118Z,68.18
2018-04-23T03:02:06.530Z,68.03
2018-04-23T03:07:07.867Z,67.70
2018-04-23T03:12:09.176Z,67.02
2018-04-23T03:17:10.485Z,66.95
2018-04-23T03:22:11.802Z,66.94
2018-04-23T03:27:13.103Z,67.23
2018-04-23T03:32:15.186Z,67.44
2018-04-23T03:37:16.506Z,67.32
2018-04-23T03:42:18.566Z,67.36
2018-04-23T03:47:19.883Z,67.34
2018-04-23T03:52:21.239Z,67.42
2018-04-23T03:57:22.522Z,67.84
2018-04-23T04:02:23.843Z,67.75
2018-04-23T04:07:25.194Z,67.86
2018-04-23T04:12:44.973Z,67.96
2018-04-23T04:23:52.391Z,68.71
2018-04-23T04:28:53.715Z,68.62
2018-04-23T04:33:55.026Z,68.71
2018-04-23T04:38:56.309Z,69.08
2018-04-23T04:43:57.672Z,69.10
2018-04-23T04:48:58.934Z,69.69
2018-04-23T04:54:00.234Z,69.98
2018-04-23T04:59:01.582Z,69.97
2018-04-23T05:04:02.886Z,69.89
2018-04-23T05:09:04.934Z,69.75
2018-04-23T05:14:06.226Z,69.52
2018-04-23T05:19:07.531Z,68.77
2018-04-23T05:24:08.848Z,67.92
2018-04-23T05:29:10.154Z,67.85
2018-04-23T05:34:12.235Z,67.39
2018-04-23T05:39:13.535Z,67.08
2018-04-23T05:44:14.902Z,67.27
2018-04-23T05:49:16.177Z,66.89
2018-04-23T05:54:17.488Z,68.04
2018-04-23T05:59:18.803Z,68.00
2018-04-23T06:04:20.861Z,68.54
2018-04-23T06:09:22.169Z,68.25
2018-04-23T06:14:23.509Z,67.94
2018-04-23T06:19:24.823Z,67.46
2018-04-23T06:24:26.146Z,66.90
2018-04-23T06:29:27.449Z,66.52
2018-04-23T06:34:29.498Z,65.08
2018-04-23T06:39:30.838Z,63.02
2018-04-23T06:44:32.143Z,62.22
2018-04-23T06:49:34.181Z,61.27
2018-04-23T06:54:35.510Z,61.34
2018-04-23T06:59:36.839Z,61.93
2018-04-23T07:04:38.139Z,61.12
2018-04-23T07:09:39.490Z,59.69
2018-04-23T07:14:40.802Z,59.94
2018-04-23T07:19:42.151Z,60.80
2018-04-23T07:24:43.466Z,60.14
2018-04-23T07:29:45.531Z,60.57
2018-04-23T07:34:46.894Z,58.77
2018-04-23T07:39:48.903Z,58.92
2018-04-23T07:44:50.206Z,58.25
2018-04-23T07:49:51.522Z,56.95
2018-04-23T07:54:52.854Z,56.12
2018-04-23T07:59:54.194Z,55.57
2018-04-23T08:04:55.502Z,54.83
2018-04-23T08:15:02.479Z,54.33
2018-04-23T08:20:03.818Z,54.28
2018-04-23T08:25:05.158Z,55.21
2018-04-23T08:30:06.573Z,54.03
2018-04-23T08:35:07.891Z,53.75
2018-04-23T08:40:09.237Z,54.11
2018-04-23T08:45:11.334Z,54.82
2018-04-23T08:50:12.683Z,53.96
2018-04-23T08:55:14.079Z,54.31
2018-04-23T09:00:15.517Z,52.93
2018-04-23T09:05:16.810Z,53.25
2018-04-23T09:10:18.887Z,53.35
2018-04-23T09:15:20.211Z,49.61
2018-04-23T09:20:22.279Z,48.14
2018-04-23T09:25:23.595Z,48.81
2018-04-23T09:30:24.930Z,49.67
2018-04-23T09:35:26.313Z,49.82
2018-04-23T09:40:27.622Z,50.02
2018-04-23T09:45:28.942Z,49.30
2018-04-23T09:50:30.278Z,47.81
2018-04-23T09:55:31.638Z,46.97
2018-04-23T10:00:33.718Z,47.95
2018-04-23T10:05:35.042Z,46.68
2018-04-23T10:10:37.099Z,48.30
2018-04-23T10:15:38.446Z,45.61
2018-04-23T10:20:40.500Z,44.73
2018-04-23T10:25:41.823Z,44.74
2018-04-23T10:30:43.886Z,44.67
2018-04-23T10:35:45.223Z,45.24
2018-04-23T10:40:46.554Z,44.68
2018-04-23T10:45:48.113Z,42.22
2018-04-23T10:50:50.181Z,42.67
2018-04-23T10:55:51.501Z,41.33
2018-04-23T11:00:54.402Z,41.79
2018-04-23T11:05:55.779Z,41.67
2018-04-23T11:10:57.110Z,40.99
2018-04-23T11:15:59.180Z,41.85
2018-04-23T11:21:00.491Z,41.75
2018-04-23T11:26:01.834Z,40.45
2018-04-23T11:31:03.138Z,40.13
2018-04-23T11:36:04.468Z,40.91
2018-04-23T11:41:05.774Z,41.68
2018-04-23T11:46:07.863Z,39.36
2018-04-23T11:51:16.030Z,39.76
2018-04-23T11:56:17.359Z,39.67
2018-04-23T12:01:18.690Z,40.68
2018-04-23T12:06:20.010Z,40.23
2018-04-23T12:11:21.334Z,39.08
2018-04-23T12:16:22.651Z,41.18
2018-04-23T12:21:23.966Z,39.48
2018-04-23T12:26:26.020Z,38.52
2018-04-23T12:31:27.334Z,38.95
2018-04-23T12:36:28.902Z,40.36
2018-04-23T12:41:31.026Z,38.69
2018-04-23T12:46:32.434Z,38.70
2018-04-23T12:51:33.741Z,40.47
2018-04-23T12:56:35.791Z,38.85
2018-04-23T13:01:37.106Z,37.23
2018-04-23T13:06:38.405Z,35.99
2018-04-23T13:11:39.722Z,34.41
2018-04-23T13:16:41.039Z,34.28
2018-04-23T13:21:42.359Z,34.89
2018-04-23T13:26:50.734Z,34.78
2018-04-23T13:31:52.059Z,35.91
2018-04-23T13:36:53.419Z,34.09
2018-04-23T13:41:55.514Z,34.62
2018-04-23T13:46:57.586Z,34.21
2018-04-23T13:51:58.935Z,34.47
2018-04-23T13:57:01.060Z,34.75
2018-04-23T14:02:02.476Z,34.35
2018-04-23T14:07:03.809Z,33.68
2018-04-23T14:12:05.899Z,34.26
2018-04-23T14:17:07.228Z,35.64
2018-04-23T14:22:08.562Z,35.59
2018-04-23T14:27:09.874Z,35.47
2018-04-23T14:32:11.198Z,35.47
2018-04-23T14:37:12.535Z,34.73
2018-04-23T14:42:13.878Z,34.77
2018-04-23T14:47:15.206Z,35.06
2018-04-23T14:52:16.562Z,35.85
2018-04-23T14:57:17.891Z,35.04
2018-04-23T15:02:19.218Z,36.69
2018-04-23T15:07:21.274Z,36.69
2018-04-23T15:12:22.607Z,37.14
2018-04-23T15:17:24.678Z,36.42
2018-04-23T15:22:26.093Z,36.57
2018-04-23T15:27:27.414Z,36.20
2018-04-23T15:32:28.715Z,36.87
2018-04-23T15:37:30.044Z,36.99
2018-04-23T15:42:31.380Z,37.57
2018-04-23T15:47:32.699Z,36.81
2018-04-23T15:52:34.018Z,37.09
2018-04-23T15:57:35.352Z,36.68
2018-04-23T16:02:36.719Z,37.13
2018-04-23T16:07:38.043Z,36.77
2018-04-23T16:12:39.381Z,36.56
2018-04-23T16:17:40.754Z,36.88
2018-04-23T16:22:42.096Z,37.49
2018-04-23T16:27:43.459Z,37.89
2018-04-23T16:32:44.789Z,37.69
2018-04-23T16:37:46.119Z,37.54
2018-04-23T16:42:47.559Z,36.93
2018-04-23T16:47:49.733Z,37.62
2018-04-23T16:52:51.087Z,38.41
2018-04-23T16:57:52.447Z,39.01
2018-04-23T17:02:53.771Z,39.31
2018-04-23T17:07:55.140Z,39.10
2018-04-23T17:12:57.263Z,40.14
2018-04-23T17:17:58.719Z,41.16
2018-04-23T17:23:00.051Z,40.30
2018-04-23T17:28:01.395Z,40.85
2018-04-23T17:33:03.484Z,41.26
2018-04-23T17:38:05.559Z,41.09
2018-04-23T17:43:06.927Z,41.88
2018-04-23T17:48:08.247Z,42.04
2018-04-23T17:53:09.606Z,41.65
2018-04-23T17:58:10.938Z,41.61
2018-04-23T18:03:12.279Z,41.81
2018-04-23T18:08:14.381Z,43.49
2018-04-23T18:13:15.817Z,43.93
2018-04-23T18:18:17.199Z,44.21
2018-04-23T18:23:18.558Z,44.56
2018-04-23T18:28:19.924Z,44.95
2018-04-23T18:33:22.059Z,45.57
2018-04-23T18:38:23.408Z,45.73
2018-04-23T18:43:25.539Z,45.67
2018-04-23T18:48:26.874Z,45.80
2018-04-23T18:53:28.223Z,46.64
2018-04-23T18:58:29.975Z,47.19
2018-04-23T19:03:31.354Z,48.04
2018-04-23T19:13:40.788Z,48.97
2018-04-23T19:18:42.150Z,49.38
2018-04-23T19:23:43.530Z,49.19
2018-04-23T19:28:44.968Z,49.54
2018-04-23T19:33:46.287Z,49.83
2018-04-23T19:38:48.366Z,50.50
2018-04-23T19:43:49.731Z,50.91
2018-04-23T19:48:51.070Z,51.83
2018-04-23T19:53:52.426Z,52.11
2018-04-23T19:58:53.775Z,52.11
2018-04-23T20:03:55.328Z,51.47
2018-04-23T20:08:56.652Z,51.95
2018-04-23T20:13:58.005Z,51.98
2018-04-23T20:18:59.358Z,51.74
2018-04-23T20:24:00.716Z,52.12
2018-04-23T20:29:03.014Z,52.00
2018-04-23T20:34:04.350Z,52.78
2018-04-23T20:39:05.726Z,52.71
2018-04-23T20:44:07.091Z,51.80
2018-04-23T20:49:09.195Z,51.43
2018-04-23T20:54:11.257Z,51.69
2018-04-23T20:59:12.588Z,51.51
2018-04-23T21:04:13.907Z,52.14
2018-04-23T21:09:15.238Z,52.45
2018-04-23T21:14:16.576Z,52.74
2018-04-23T21:19:18.627Z,52.70
2018-04-23T21:24:19.953Z,52.51
2018-04-23T21:29:21.279Z,53.44
2018-04-23T21:34:22.585Z,53.56
2018-04-23T21:39:23.918Z,53.23
2018-04-23T21:44:25.312Z,53.57
2018-04-23T21:49:26.646Z,53.68
2018-04-23T21:54:27.976Z,53.85
2018-04-23T21:59:29.335Z,54.27
2018-04-23T22:04:30.686Z,54.20
2018-04-23T22:09:32.747Z,54.29
2018-04-23T22:14:34.115Z,55.14
2018-04-23T22:19:36.142Z,55.76
2018-04-23T22:24:37.480Z,56.35
2018-04-23T22:29:39.525Z,56.62
2018-04-23T22:34:40.859Z,57.12
2018-04-23T22:39:42.939Z,57.70
2018-04-23T22:44:44.269Z,57.43
2018-04-23T22:49:46.322Z,57.96
2018-04-23T22:54:47.655Z,58.00
2018-04-23T22:59:48.970Z,58.53
2018-04-23T23:04:50.318Z,58.86
2018-04-23T23:09:51.659Z,58.90
2018-04-23T23:14:53.034Z,58.28
2018-04-23T23:19:55.083Z,58.05
2018-04-23T23:24:56.434Z,57.94
2018-04-23T23:29:57.758Z,58.11
2018-04-23T23:34:59.110Z,58.33
2018-04-23T23:40:00.475Z,58.72
2018-04-23T23:45:02.591Z,59.44
2018-04-23T23:50:04.686Z,60.43
2018-04-23T23:55:06.045Z,60.61
